• Join FlightAware (Why Join?)
  • Login
  • US Flag 
03:35PM EST


 

Airport Tracker/Info


-or-


 

Live Flight TrackerFlight Track Log ✈ N319EE ✈ 11-Jun-2014 ✈ KROC - KPWM

Flight Track Log - Related Links

Times and Time Zones

All times are in EDT time to prevent confusion due to time zone crossing. See the N319EE flight status page for this flight to view local times or setup timezone preferences in your user account.

Time Position Orientation Groundspeed Altitude Reporting Facility
EDT Latitude Longitude Course Direction KTS MPH feet Rate Location/Type
07:42AM 43.1342 -77.6281 65° Northeast 144 166 1,800  Level Cleveland Center
07:43AM 43.1456 -77.5958 64° Northeast 159 183 2,900 1,714 Climbing Cleveland Center
07:44AM 43.1467 -77.5392 88° East 155 178 4,800 1,914 Climbing Cleveland Center
07:46AM 43.1558 -77.3831 85° East 188 216 8,800 1,881 Climbing Cleveland Center
07:47AM 43.1636 -77.3042 82° East 203 234 10,600 1,805 Climbing Cleveland Center
07:48AM 43.1700 -77.2256 84° East 207 238 12,500 1,561 Climbing Cleveland Center
07:49AM 43.1758 -77.1456 84° East 208 239 13,800 1,355 Climbing Cleveland Center
07:50AM 43.1825 -77.0625 84° East 218 251 15,300 1,220 Climbing Cleveland Center
07:51AM 43.1881 -76.9786 85° East 220 253 16,300 976 Climbing Cleveland Center
07:52AM 43.1944 -76.8939 84° East 221 254 17,300 1,065 Climbing Cleveland Center
07:53AM 43.2017 -76.7914 84° East 223 257 18,500 952 Climbing Cleveland Center
07:55AM 43.2075 -76.7056 85° East 223 257 19,300 661 Climbing Boston Center
07:56AM 43.2131 -76.6256 85° East 231 266 19,900 629 Climbing Boston Center
07:57AM 43.2214 -76.5178 84° East 237 273 20,600 545 Climbing Boston Center
07:58AM 43.2267 -76.4239 86° East 241 277 21,000 198 Climbing Boston Center
07:59AM 43.2339 -76.3242 84° East 260 299 21,000  Level Boston Center
08:00AM 43.2414 -76.2200 84° East 270 311 21,000  Level Boston Center
08:01AM 43.2467 -76.1153 86° East 273 314 21,000  Level Boston Center
08:02AM 43.2539 -76.0103 85° East 275 316 21,000  Level Boston Center
08:03AM 43.2608 -75.9050 85° East 276 318 21,000  Level Boston Center
08:04AM 43.2678 -75.8000 85° East 276 318 21,000  Level Boston Center
08:05AM 43.2747 -75.6969 85° East 274 315 21,000  Level Boston Center
08:06AM 43.2811 -75.5922 85° East 274 315 21,000  Level Boston Center
08:07AM 43.2883 -75.4656 85° East 276 318 21,000  Level Boston Center
08:08AM 43.2947 -75.3608 85° East 276 318 21,000  Level Boston Center
08:09AM 43.2994 -75.2575 86° East 279 321 21,000  Level Boston Center
08:10AM 43.3058 -75.1553 85° East 282 325 21,000  Level Boston Center
08:11AM 43.3119 -75.0489 85° East 282 325 21,000  Level Boston Center
08:12AM 43.3183 -74.9442 85° East 281 323 21,000  Level Boston Center
08:13AM 43.3239 -74.8378 86° East 281 323 21,000  Level Boston Center
08:14AM 43.3308 -74.7114 86° East 280 322 21,000  Level Boston Center
08:15AM 43.3364 -74.6058 86° East 280 322 21,000  Level Boston Center
08:16AM 43.3422 -74.5025 86° East 278 320 21,000  Level Boston Center
08:17AM 43.3464 -74.3975 87° East 276 318 21,000  Level Boston Center
08:18AM 43.3522 -74.2939 86° East 275 316 21,000  Level Boston Center
08:19AM 43.3569 -74.1872 86° East 279 321 21,000  Level Boston Center
08:20AM 43.3617 -74.0792 87° East 280 322 21,000  Level Boston Center
08:21AM 43.3675 -73.9703 86° East 284 327 21,000  Level Boston Center
08:22AM 43.3722 -73.8614 87° East 285 328 21,000  Level Boston Center
08:23AM 43.3772 -73.7517 86° East 286 329 21,000  Level Boston Center
08:24AM 43.3831 -73.6319 86° East 286 329 21,000  Level Boston Center
08:25AM 43.3883 -73.5211 86° East 288 331 21,000  Level Boston Center
08:26AM 43.3925 -73.4117 87° East 289 333 21,000  Level Boston Center
08:27AM 43.3969 -73.2964 87° East 287 330 21,000  Level Boston Center
08:28AM 43.4019 -73.1881 86° East 286 329 21,000  Level Boston Center
08:29AM 43.4061 -73.0656 87° East 286 329 21,000  Level Boston Center
08:30AM 43.4103 -72.9683 87° East 286 329 21,000  Level Boston Center
08:31AM 43.4142 -72.8578 87° East 288 331 21,000  Level Boston Center
08:32AM 43.4175 -72.7478 88° East 288 331 21,000  Level Boston Center
08:33AM 43.4219 -72.6353 87° East 290 334 21,000 -545 Level Boston Center
08:34AM 43.4272 -72.4953 87° East 302 348 19,900 -1,041 Descending Boston Center
08:35AM 43.4308 -72.3703 88° East 320 368 18,900 -992 Descending Boston Center
08:36AM 43.4350 -72.2472 87° East 322 371 17,900 -871 Descending Boston Center
08:37AM 43.4383 -72.1275 88° East 320 368 17,100 -864 Descending Boston Center
08:38AM 43.4422 -72.0064 87° East 319 367 16,100 -984 Descending Boston Center
08:39AM 43.4453 -71.8814 88° East 319 367 15,100 -1,033 Descending Boston Center
08:40AM 43.4492 -71.7517 88° East 316 364 14,000 -1,033 Descending Boston Center
08:41AM 43.4522 -71.6319 88° East 316 364 13,000 -992 Descending Boston Center
08:42AM 43.4553 -71.5142 88° East 313 360 12,000 -787 Descending Boston Center
08:43AM 43.4578 -71.3983 88° East 307 353 11,400 -541 Descending Boston Center
08:44AM 43.4603 -71.2825 88° East 287 330 10,900 -198 Descending Boston Center
08:45AM 43.4628 -71.1789 88° East 277 319 11,000 98 Climbing Boston Center
08:46AM 43.4789 -71.0817 77° East 267 307 11,100  Climbing Boston Center
08:47AM 43.5047 -70.9894 69° East 263 303 11,000 -689 Descending Boston Center
08:48AM 43.5306 -70.8928 70° East 267 307 9,700 -1,438 Descending Boston Center
08:50AM 43.5597 -70.7942 68° East 262 302 8,100 -1,512 Descending Boston Center
08:51AM 43.5861 -70.7064 67° East 252 290 6,600 -1,475 Descending Boston Center
08:52AM 43.6047 -70.6189 74° East 243 280 5,100 -1,475 Descending Boston Center
08:53AM 43.6219 -70.5383 74° East 224 258 3,600 -1,500 Descending Boston Center
08:54AM 43.6375 -70.4575 75° East 210 242 2,000 -1,230 Descending Boston Center
08:55AM 43.6492 -70.3956 75° East 173 199 1,100 -744 Descending Boston Center
08:56AM 43.6469 -70.3436 93° East 139 160 500 -446 Descending Boston Center
08:57AM 43.6439 -70.2950 95° East 129 148 200 -300 Descending Boston Center